Time;durP1;ratioP1;P1;durP2;ratioP2;P2;SDS_P1;SDS_P2;PMS_P1;PMS_P2;Temp;Humidity;BMP_temperature;BMP_pressure;BME280_temperature;BME280_humidity;BME280_pressure;Samples;Min_cycle;Max_cycle;Signal;HPM_P1;HPM_P2
2024/02/02 00:01:22;;;;;;;18.30;4.80;;;;;;;4.63;100.00;101988.75;4998373;28;20037;-76
2024/02/02 00:03:54;;;;;;;15.15;4.97;;;;;;;4.48;100.00;101971.22;4997060;28;20057;-75
2024/02/02 00:06:23;;;;;;;13.05;4.82;;;;;;;4.49;100.00;101965.09;5031306;28;20045;-76
2024/02/02 00:08:54;;;;;;;18.33;5.00;;;;;;;4.58;100.00;101977.34;5019797;28;20037;-77
2024/02/02 00:11:22;;;;;;;17.83;4.57;;;;;;;4.49;100.00;101979.97;5028169;28;20030;-75
2024/02/02 00:13:51;;;;;;;23.10;5.10;;;;;;;4.27;100.00;101981.63;5020583;28;20068;-76
2024/02/02 00:16:20;;;;;;;17.23;4.82;;;;;;;4.18;100.00;101986.84;5018260;28;20068;-74
2024/02/02 00:18:52;;;;;;;25.88;5.15;;;;;;;4.16;100.00;102009.53;5024135;28;20029;-76
2024/02/02 00:21:20;;;;;;;22.83;4.82;;;;;;;4.08;100.00;101990.28;5023880;28;20048;-76
2024/02/02 00:23:49;;;;;;;16.48;4.63;;;;;;;4.07;100.00;101999.91;5014482;28;20054;-78
2024/02/02 00:26:17;;;;;;;14.65;4.28;;;;;;;4.02;100.00;101987.63;5015604;28;20479;-75
2024/02/02 00:28:45;;;;;;;17.48;5.22;;;;;;;3.78;100.00;101949.03;4996693;28;20105;-78
2024/02/02 00:31:21;;;;;;;16.73;4.60;;;;;;;4.03;100.00;101971.03;4976605;28;20073;-79
2024/02/02 00:33:50;;;;;;;19.63;4.35;;;;;;;3.98;100.00;101947.41;4983252;28;20477;-79
2024/02/02 00:36:22;;;;;;;15.13;4.47;;;;;;;4.14;100.00;101957.09;4994843;28;20060;-77
2024/02/02 00:38:54;;;;;;;12.55;3.95;;;;;;;4.20;100.00;101962.38;4984937;28;20047;-80
2024/02/02 00:41:24;;;;;;;16.63;4.25;;;;;;;3.97;100.00;101919.44;4979294;28;20046;-79
2024/02/02 00:43:53;;;;;;;13.82;4.75;;;;;;;4.23;100.00;101965.03;4975785;28;20042;-78
2024/02/02 00:46:23;;;;;;;18.23;4.10;;;;;;;4.19;100.00;101970.22;4998084;28;20050;-75
2024/02/02 00:48:53;;;;;;;18.00;4.05;;;;;;;4.23;100.00;101965.03;5002442;28;20054;-77
2024/02/02 00:51:24;;;;;;;22.80;4.15;;;;;;;4.33;100.00;101970.28;5005130;28;20042;-78
2024/02/02 00:53:53;;;;;;;13.50;3.45;;;;;;;4.34;100.00;101978.16;5010633;28;20466;-75
2024/02/02 00:56:24;;;;;;;;;;;;;;;4.38;100.00;101979.94;4986796;28;20055;-78
2024/02/02 00:58:54;;;;;;;14.05;4.35;;;;;;;4.39;100.00;101984.31;4989646;28;19930;-78
2024/02/02 01:01:23;;;;;;;15.85;4.40;;;;;;;4.34;100.00;101988.66;4990166;28;20050;-77
2024/02/02 01:03:52;;;;;;;23.88;4.50;;;;;;;4.35;100.00;101979.03;4987686;28;20050;-76
2024/02/02 01:06:23;;;;;;;24.88;4.80;;;;;;;4.39;100.00;101991.31;4983592;28;20115;-78
2024/02/02 01:08:52;;;;;;;15.73;4.15;;;;;;;4.35;100.00;101982.53;5002772;28;20042;-77
2024/02/02 01:11:22;;;;;;;23.65;4.90;;;;;;;4.31;100.00;101975.53;5007049;28;20070;-78
2024/02/02 01:13:54;;;;;;;18.13;4.40;;;;;;;4.38;100.00;101972.06;4994408;28;20141;-78
2024/02/02 01:16:26;;;;;;;20.38;4.53;;;;;;;4.33;100.00;101973.78;4984501;28;20047;-76
2024/02/02 01:18:56;;;;;;;20.70;4.40;;;;;;;4.32;100.00;101971.16;4990926;28;20519;-77
2024/02/02 01:21:26;;;;;;;16.05;3.78;;;;;;;4.30;100.00;101976.38;4993927;28;20042;-77
2024/02/02 01:23:59;;;;;;;17.20;4.07;;;;;;;4.19;100.00;101968.50;4988436;28;20102;-77
2024/02/02 01:26:31;;;;;;;15.02;3.50;;;;;;;4.23;100.00;101969.38;4988452;28;20049;-79
2024/02/02 01:29:01;;;;;;;15.10;4.32;;;;;;;4.25;100.00;101974.63;4974438;28;20073;-78
2024/02/02 01:31:32;;;;;;;17.15;3.80;;;;;;;4.12;100.00;101944.84;4990105;28;20072;-80
2024/02/02 01:34:03;;;;;;;13.27;3.60;;;;;;;4.28;100.00;101978.13;4990320;28;20070;-76
2024/02/02 01:36:33;;;;;;;19.13;4.13;;;;;;;4.15;100.00;101958.84;4990850;28;20050;-80
2024/02/02 01:39:04;;;;;;;15.20;3.85;;;;;;;4.30;100.00;101978.13;5011284;28;20053;-77
2024/02/02 01:41:34;;;;;;;13.35;3.95;;;;;;;4.30;100.00;101967.66;5031887;28;20489;-76
2024/02/02 01:44:02;;;;;;;19.45;3.88;;;;;;;4.31;100.00;101972.91;4996878;28;20034;-76
2024/02/02 01:46:33;;;;;;;14.30;3.42;;;;;;;4.20;100.00;101935.28;4999743;28;20117;-76
2024/02/02 01:49:03;;;;;;;14.65;3.78;;;;;;;4.33;100.00;101971.16;5006583;28;20069;-78
2024/02/02 01:51:31;;;;;;;20.80;3.95;;;;;;;4.23;100.00;101958.91;5003968;28;20056;-78
2024/02/02 01:53:59;;;;;;;15.80;3.90;;;;;;;4.25;100.00;101972.84;4983048;28;20577;-76
2024/02/02 01:56:27;;;;;;;13.07;3.72;;;;;;;4.03;100.00;101960.53;4987625;28;20566;-77
2024/02/02 01:58:55;;;;;;;16.67;4.07;;;;;;;3.99;100.00;101982.34;5002255;28;20043;-75
2024/02/02 02:01:25;;;;;;;18.85;3.92;;;;;;;3.73;100.00;101964.75;5001669;28;20038;-77
2024/02/02 02:03:56;;;;;;;17.65;4.60;;;;;;;3.72;100.00;101970.88;4995518;28;20057;-77
2024/02/02 02:06:30;;;;;;;15.82;4.25;;;;;;;3.67;100.00;101980.44;4982167;28;20159;-79
2024/02/02 02:08:58;;;;;;;16.83;3.70;;;;;;;3.63;100.00;101975.16;5003028;28;20043;-79
2024/02/02 02:11:27;;;;;;;19.60;4.75;;;;;;;3.69;100.00;101985.69;4998960;28;20057;-78
2024/02/02 02:13:57;;;;;;;15.35;4.40;;;;;;;3.68;100.00;101991.78;5013898;28;20089;-78
2024/02/02 02:16:27;;;;;;;16.02;4.30;;;;;;;3.64;100.00;101982.16;4991468;28;20054;-79
2024/02/02 02:18:57;;;;;;;17.40;4.75;;;;;;;3.60;100.00;101991.75;4993449;28;20069;-78
2024/02/02 02:21:34;;;;;;;14.77;4.13;;;;;;;3.47;100.00;101961.06;4995616;28;20050;-76
2024/02/02 02:24:02;;;;;;;21.02;4.43;;;;;;;3.62;100.00;101976.88;5018622;28;20062;-77
2024/02/02 02:26:31;;;;;;;15.38;3.85;;;;;;;3.71;100.00;101970.84;5013496;28;20060;-77
2024/02/02 02:29:01;;;;;;;16.30;4.30;;;;;;;3.82;100.00;101956.94;5014841;28;20113;-78
2024/02/02 02:31:31;;;;;;;17.58;4.25;;;;;;;3.86;100.00;101944.75;5008535;28;20058;-77
2024/02/02 02:34:00;;;;;;;15.38;4.40;;;;;;;4.01;100.00;101960.53;4993065;28;20515;-79
2024/02/02 02:36:30;;;;;;;14.10;4.00;;;;;;;3.92;100.00;101928.19;5019716;28;20042;-78
2024/02/02 02:38:59;;;;;;;19.92;4.35;;;;;;;3.98;100.00;101951.78;4988725;28;20054;-78
2024/02/02 02:41:29;;;;;;;10.82;4.03;;;;;;;3.79;100.00;101956.91;4997869;28;20042;-78
2024/02/02 02:43:57;;;;;;;14.02;4.45;;;;;;;3.68;100.00;101949.88;4975654;28;20113;-77
2024/02/02 02:46:26;;;;;;;10.88;4.38;;;;;;;3.71;100.00;101942.91;4980015;28;21086;-78
2024/02/02 02:48:53;;;;;;;17.73;4.40;;;;;;;3.70;100.00;101922.81;5000860;28;20077;-77
2024/02/02 02:51:25;;;;;;;16.27;4.63;;;;;;;3.80;100.00;101931.59;4997176;28;20046;-77
2024/02/02 02:53:55;;;;;;;14.93;4.15;;;;;;;3.88;100.00;101936.03;4995345;28;20058;-77
2024/02/02 02:56:25;;;;;;;16.80;4.38;;;;;;;3.80;100.00;101916.75;4975208;28;20531;-75
2024/02/02 02:58:55;;;;;;;14.65;4.43;;;;;;;3.90;100.00;101922.06;5004614;28;20077;-77
2024/02/02 03:01:24;;;;;;;15.30;4.03;;;;;;;4.05;100.00;101938.72;5006160;28;20077;-75
2024/02/02 03:03:58;;;;;;;13.73;4.38;;;;;;;4.06;100.00;101929.09;5020290;28;20073;-77
2024/02/02 03:06:41;;;;;;;15.68;4.68;;;;;;;4.07;100.00;101926.50;5004977;28;20049;-77
2024/02/02 03:09:12;;;;;;;13.60;4.00;;;;;;;4.08;100.00;101920.38;4992928;28;20050;-77
2024/02/02 03:11:45;;;;;;;14.15;4.13;;;;;;;4.11;100.00;101924.75;4995293;28;20037;-79
2024/02/02 03:14:17;;;;;;;14.15;3.70;;;;;;;3.99;100.00;101928.19;5012119;28;20126;-78
2024/02/02 03:16:47;;;;;;;13.98;4.03;;;;;;;3.86;100.00;101908.94;4987613;28;20061;-78
2024/02/02 03:19:15;;;;;;;14.38;4.13;;;;;;;3.95;100.00;101909.81;5010162;28;20118;-78
2024/02/02 03:21:44;;;;;;;12.48;4.45;;;;;;;3.99;100.00;101915.09;5012464;28;20045;-78
2024/02/02 03:24:13;;;;;;;16.90;4.30;;;;;;;4.06;100.00;101932.59;5013999;28;20379;-75
2024/02/02 03:26:44;;;;;;;;;;;;;;;4.03;100.00;101950.06;4985790;28;20054;-78
2024/02/02 03:29:14;;;;;;;15.13;4.25;;;;;;;3.83;100.00;101953.44;5008456;28;19917;-79
2024/02/02 03:31:44;;;;;;;17.85;5.30;;;;;;;3.61;100.00;101950.72;5013112;28;20052;-79
2024/02/02 03:34:12;;;;;;;16.40;4.38;;;;;;;3.58;100.00;101974.25;5009334;28;20046;-77
2024/02/02 03:36:42;;;;;;;15.93;5.05;;;;;;;3.50;100.00;101961.97;5033470;28;20046;-76
2024/02/02 03:39:09;;;;;;;15.75;4.55;;;;;;;3.57;100.00;101968.16;4989747;28;20118;-75
2024/02/02 03:41:38;;;;;;;13.55;4.05;;;;;;;3.68;100.00;101958.59;5026378;28;20094;-77
2024/02/02 03:44:10;;;;;;;16.13;5.28;;;;;;;3.79;100.00;101970.00;5029186;28;20053;-77
2024/02/02 03:46:40;;;;;;;11.27;4.57;;;;;;;3.85;100.00;101967.44;5019522;28;20052;-78
2024/02/02 03:49:10;;;;;;;15.68;5.47;;;;;;;3.76;100.00;101951.69;5021971;28;20401;-78
2024/02/02 03:51:46;;;;;;;16.15;4.88;;;;;;;3.86;100.00;101961.34;4977246;28;20077;-77
2024/02/02 03:54:16;;;;;;;12.52;4.47;;;;;;;3.95;100.00;101957.00;4986733;28;20042;-78
2024/02/02 03:56:45;;;;;;;12.88;4.38;;;;;;;3.86;100.00;101937.75;4975895;28;20556;-76
2024/02/02 03:59:14;;;;;;;12.23;4.25;;;;;;;4.04;100.00;101955.31;5000517;28;20050;-77
2024/02/02 04:01:43;;;;;;;15.13;5.03;;;;;;;4.00;100.00;101944.81;4990275;28;20039;-77
2024/02/02 04:04:11;;;;;;;13.45;4.50;;;;;;;4.06;100.00;101952.69;4985456;28;20561;-79
2024/02/02 04:06:43;;;;;;;16.50;4.53;;;;;;;4.03;100.00;101950.06;4971531;28;20763;-80
2024/02/02 04:09:12;;;;;;;18.33;5.05;;;;;;;4.04;100.00;101951.81;5006446;28;20073;-78
2024/02/02 04:11:41;;;;;;;18.05;4.78;;;;;;;4.04;100.00;101970.16;5017071;28;20049;-79
2024/02/02 04:14:14;;;;;;;11.10;4.68;;;;;;;3.72;100.00;101917.59;5007338;28;20057;-78
2024/02/02 04:16:45;;;;;;;14.85;4.70;;;;;;;4.04;100.00;101973.66;5015814;28;20073;-77
2024/02/02 04:19:17;;;;;;;;;;;;;;;4.08;100.00;101983.31;5014702;28;20112;-78
2024/02/02 04:21:46;;;;;;;15.55;4.47;;;;;;;4.01;100.00;101983.25;4987646;28;20515;-78
2024/02/02 04:24:17;;;;;;;10.45;4.30;;;;;;;4.03;100.00;101997.25;5003823;28;20068;-76
2024/02/02 04:26:46;;;;;;;17.98;5.00;;;;;;;3.99;100.00;101983.25;4970997;28;20059;-76
2024/02/02 04:29:14;;;;;;;12.52;4.95;;;;;;;4.07;100.00;101996.41;4965534;28;20049;-80
2024/02/02 04:31:44;;;;;;;16.63;4.75;;;;;;;3.90;100.00;101980.59;4957384;28;20133;-79
2024/02/02 04:34:18;;;;;;;12.18;4.30;;;;;;;3.94;100.00;101986.69;4987317;28;20047;-79
2024/02/02 04:36:49;;;;;;;15.35;5.20;;;;;;;3.97;100.00;101979.72;4969987;28;20104;-79
2024/02/02 04:39:17;;;;;;;16.40;4.80;;;;;;;3.96;100.00;101964.88;4985787;28;20046;-77
2024/02/02 04:41:46;;;;;;;13.82;4.88;;;;;;;4.15;100.00;102002.53;4990463;28;20043;-78
2024/02/02 04:44:14;;;;;;;12.23;4.75;;;;;;;4.14;100.00;102006.91;4991002;28;20054;-77
2024/02/02 04:46:43;;;;;;;12.00;4.82;;;;;;;4.16;100.00;102004.28;4986060;28;20127;-78
2024/02/02 04:49:12;;;;;;;15.88;4.85;;;;;;;4.18;100.00;101987.72;4990522;28;20129;-77
2024/02/02 04:51:40;;;;;;;13.15;4.45;;;;;;;4.28;100.00;101988.63;4993682;28;20523;-78
2024/02/02 04:54:09;;;;;;;10.23;4.40;;;;;;;4.32;100.00;101972.03;4986392;28;20456;-77
2024/02/02 04:56:39;;;;;;;17.55;5.00;;;;;;;4.23;100.00;101943.16;4984440;28;20077;-78
2024/02/02 04:59:07;;;;;;;18.20;4.72;;;;;;;4.32;100.00;101969.41;4999520;28;20049;-79
2024/02/02 05:01:36;;;;;;;17.00;5.20;;;;;;;4.24;100.00;101965.91;5013206;28;20037;-77
2024/02/02 05:04:09;;;;;;;17.30;5.10;;;;;;;4.22;100.00;101968.50;4998189;28;20571;-77
2024/02/02 05:06:40;;;;;;;13.18;4.22;;;;;;;4.22;100.00;101954.53;4991768;28;20058;-77
2024/02/02 05:09:12;;;;;;;15.80;4.70;;;;;;;4.32;100.00;101953.66;4999284;28;20058;-78
2024/02/02 05:11:41;;;;;;;11.25;4.30;;;;;;;4.33;100.00;101931.81;4999113;28;20042;-78
2024/02/02 05:14:13;;;;;;;12.63;5.05;;;;;;;4.41;100.00;101945.81;4995100;28;20049;-77
2024/02/02 05:16:41;;;;;;;13.38;4.38;;;;;;;4.30;100.00;101946.66;4973023;28;20518;-79
2024/02/02 05:19:12;;;;;;;11.82;4.82;;;;;;;4.27;100.00;101947.53;4997220;28;20057;-76
2024/02/02 05:21:40;;;;;;;;;;;;;;;4.33;100.00;101947.56;4999399;28;20110;-78
2024/02/02 05:24:08;;;;;;;16.67;5.00;;;;;;;4.33;100.00;101946.69;4997166;28;20347;-76
2024/02/02 05:26:59;;;;;;;15.65;4.72;;;;;;;4.32;100.00;101935.31;4989489;28;20050;-77
2024/02/02 05:29:27;;;;;;;13.15;4.97;;;;;;;4.37;100.00;101951.06;4990705;28;20046;-77
2024/02/02 05:31:58;;;;;;;14.45;4.32;;;;;;;4.30;100.00;101939.69;4984765;28;20130;-78
2024/02/02 05:34:32;;;;;;;17.52;4.70;;;;;;;4.28;100.00;101927.44;4981463;28;20497;-78
2024/02/02 05:37:01;;;;;;;13.68;4.78;;;;;;;4.28;100.00;101923.06;4992254;28;20038;-77
2024/02/02 05:39:30;;;;;;;13.98;5.13;;;;;;;4.36;100.00;101955.44;5006898;28;20066;-77
2024/02/02 05:41:58;;;;;;;12.43;5.07;;;;;;;4.30;100.00;101951.91;5001513;28;20072;-78
2024/02/02 05:44:30;;;;;;;13.02;5.22;;;;;;;4.34;100.00;101983.41;5002072;28;22323;-77
2024/02/02 05:46:58;;;;;;;17.08;5.88;;;;;;;4.31;100.00;101983.38;4992153;28;20131;-78
2024/02/02 05:49:27;;;;;;;14.55;5.28;;;;;;;4.36;100.00;101984.28;4999920;28;20051;-77
2024/02/02 05:52:03;;;;;;;13.20;5.45;;;;;;;4.28;100.00;101972.88;4993055;28;20054;-76
2024/02/02 05:54:35;;;;;;;15.43;5.63;;;;;;;4.31;100.00;101979.88;4992902;28;20093;-77
2024/02/02 05:57:04;;;;;;;17.55;6.10;;;;;;;4.32;100.00;101981.63;5001353;28;20046;-76
2024/02/02 05:59:32;;;;;;;15.02;5.88;;;;;;;4.30;100.00;101973.78;5020785;28;20110;-75
2024/02/02 06:02:03;;;;;;;15.57;6.10;;;;;;;4.26;100.00;101969.38;4988084;28;20072;-78
2024/02/02 06:04:37;;;;;;;13.57;5.20;;;;;;;4.28;100.00;101966.75;5012226;28;20068;-77
2024/02/02 06:07:07;;;;;;;15.52;6.32;;;;;;;4.23;100.00;101969.38;4990240;28;20046;-77
2024/02/02 06:09:35;;;;;;;20.23;6.10;;;;;;;4.22;100.00;101967.63;4984410;28;20542;-76
2024/02/02 06:12:04;;;;;;;22.30;6.45;;;;;;;4.24;100.00;101976.38;5005055;28;20046;-77
2024/02/02 06:14:34;;;;;;;16.90;6.70;;;;;;;4.21;100.00;101965.88;5000530;28;20077;-77
2024/02/02 06:17:03;;;;;;;18.52;5.97;;;;;;;4.25;100.00;101961.53;4988026;28;20547;-78
2024/02/02 06:19:32;;;;;;;15.73;5.68;;;;;;;4.29;100.00;101973.75;5004224;28;20271;-78
2024/02/02 06:22:00;;;;;;;23.27;10.00;;;;;;;4.14;100.00;101945.72;5019972;28;20060;-79
2024/02/02 06:24:32;;;;;;;16.80;5.82;;;;;;;4.17;100.00;101958.84;5020042;28;20050;-77
2024/02/02 06:27:05;;;;;;;11.88;6.38;;;;;;;4.16;100.00;101957.97;5018949;28;20140;-78
2024/02/02 06:29:35;;;;;;;17.65;6.45;;;;;;;4.14;100.00;101948.34;5021430;28;20060;-76
2024/02/02 06:32:04;;;;;;;17.85;6.97;;;;;;;4.21;100.00;101951.03;4993499;28;20487;-78
2024/02/02 06:34:33;;;;;;;15.82;6.43;;;;;;;4.28;100.00;101953.66;5018487;28;20058;-77
2024/02/02 06:37:01;;;;;;;21.20;6.63;;;;;;;4.31;100.00;101945.78;5005831;28;20049;-77
2024/02/02 06:39:31;;;;;;;16.40;5.95;;;;;;;4.23;100.00;101915.19;5003310;28;20555;-77
2024/02/02 06:41:59;;;;;;;18.40;6.20;;;;;;;4.34;100.00;101937.94;5011536;28;20645;-77
2024/02/02 06:44:30;;;;;;;18.00;6.15;;;;;;;4.39;100.00;101939.72;5013114;28;20073;-79
2024/02/02 06:47:02;;;;;;;13.27;5.75;;;;;;;4.22;100.00;101930.94;4984097;28;20049;-78
2024/02/02 06:49:32;;;;;;;21.30;6.18;;;;;;;4.06;100.00;101921.25;5013853;28;20042;-77
2024/02/02 06:52:00;;;;;;;16.83;6.07;;;;;;;3.97;100.00;101929.94;5014530;28;20420;-78
2024/02/02 06:54:30;;;;;;;13.13;6.10;;;;;;;3.89;100.00;101915.94;5014134;28;20052;-76
2024/02/02 06:57:01;;;;;;;15.02;6.10;;;;;;;4.08;100.00;101916.88;4997763;28;20345;-78
2024/02/02 06:59:29;;;;;;;14.70;6.38;;;;;;;4.10;100.00;101915.13;5016486;28;20096;-77
2024/02/02 07:01:58;;;;;;;11.98;5.38;;;;;;;4.09;100.00;101901.13;5006428;28;20046;-76
2024/02/02 07:04:26;;;;;;;14.45;8.07;;;;;;;4.22;100.00;101916.06;4999971;28;20069;-78
2024/02/02 07:06:55;;;;;;;16.40;6.32;;;;;;;4.19;100.00;101921.28;5005425;28;20598;-78
2024/02/02 07:09:31;;;;;;;16.67;6.07;;;;;;;4.21;100.00;101906.44;5025603;28;20057;-78
2024/02/02 07:12:02;;;;;;;16.77;6.25;;;;;;;4.20;100.00;101928.28;5017370;28;20050;-80
2024/02/02 07:14:48;;;;;;;12.70;6.00;;;;;;;4.14;100.00;101930.00;4993539;28;20046;-79
2024/02/02 07:17:33;;;;;;;13.63;5.15;;;;;;;4.09;100.00;101926.50;4996775;28;20057;-79
2024/02/02 07:20:04;;;;;;;21.52;10.73;;;;;;;3.94;100.00;101898.47;4984592;28;20105;-79
2024/02/02 07:22:36;;;;;;;14.30;5.25;;;;;;;4.18;100.00;101927.41;4983784;28;20034;-80
2024/02/02 07:25:08;;;;;;;16.25;5.70;;;;;;;4.09;100.00;101914.25;4990674;28;20146;-77
2024/02/02 07:27:53;;;;;;;16.67;5.35;;;;;;;4.23;100.00;101925.69;4980465;28;20795;-78
2024/02/02 07:30:51;;;;;;;12.60;6.35;;;;;;;4.18;100.00;101902.94;4992487;28;20062;-76
2024/02/02 07:33:24;;;;;;;14.52;5.90;;;;;;;4.36;100.00;101929.22;5004786;28;20081;-78
2024/02/02 07:35:57;;;;;;;20.13;6.63;;;;;;;4.31;100.00;101933.56;5007679;28;20074;-77
2024/02/02 07:38:49;;;;;;;14.02;5.90;;;;;;;4.38;100.00;101932.72;4988275;28;20050;-77
2024/02/02 07:41:20;;;;;;;16.83;6.65;;;;;;;4.45;100.00;101944.97;5031790;28;20046;-78
2024/02/02 07:43:57;;;;;;;19.33;6.15;;;;;;;4.50;100.00;101943.25;5013068;28;20048;-77
2024/02/02 07:46:27;;;;;;;15.68;6.15;;;;;;;4.53;100.00;101931.88;4999606;28;20064;-76
2024/02/02 07:48:59;;;;;;;12.38;5.65;;;;;;;4.55;100.00;101923.16;4968519;28;20042;-76
2024/02/02 07:51:29;;;;;;;15.95;6.20;;;;;;;4.49;100.00;101919.63;5022664;28;20057;-77
2024/02/02 07:53:57;;;;;;;18.33;6.68;;;;;;;4.50;100.00;101917.00;4988084;28;23280;-75
2024/02/02 07:56:26;;;;;;;14.45;6.25;;;;;;;4.44;100.00;101921.34;4986040;28;20050;-78
2024/02/02 07:58:58;;;;;;;15.45;6.00;;;;;;;4.49;100.00;101911.75;4989960;28;20056;-78
2024/02/02 08:01:28;;;;;;;15.27;6.78;;;;;;;4.52;100.00;101904.78;5013922;28;20069;-77
2024/02/02 08:03:57;;;;;;;14.50;6.43;;;;;;;4.36;100.00;101907.34;5004510;28;20042;-79
2024/02/02 08:06:28;;;;;;;14.68;6.70;;;;;;;4.28;100.00;101925.69;4977707;28;20556;-78
2024/02/02 08:08:58;;;;;;;18.95;6.90;;;;;;;4.14;100.00;101930.00;4981577;28;20121;-76
2024/02/02 08:11:35;;;;;;;17.40;7.40;;;;;;;3.91;100.00;101921.19;4995108;28;20064;-77
2024/02/02 08:14:04;;;;;;;17.05;7.00;;;;;;;3.98;100.00;101930.81;4990289;28;20062;-78
2024/02/02 08:16:32;;;;;;;15.43;7.60;;;;;;;3.97;100.00;101929.06;5000937;28;20049;-78
2024/02/02 08:19:00;;;;;;;22.88;7.15;;;;;;;4.02;100.00;101922.09;4990163;28;20101;-78
2024/02/02 08:21:30;;;;;;;18.10;7.72;;;;;;;3.90;100.00;101901.09;5002564;28;20050;-79
2024/02/02 08:23:58;;;;;;;19.23;7.03;;;;;;;3.94;100.00;101895.84;4983702;28;20053;-76
2024/02/02 08:26:27;;;;;;;18.58;7.47;;;;;;;3.97;100.00;101900.22;4995294;28;20113;-80
2024/02/02 08:28:58;;;;;;;19.42;7.57;;;;;;;4.00;100.00;101913.34;4984218;28;20053;-79
2024/02/02 08:31:30;;;;;;;14.63;7.57;;;;;;;4.10;100.00;101909.88;4996516;28;20038;-76
2024/02/02 08:33:59;;;;;;;14.13;7.03;;;;;;;4.20;100.00;101896.84;5007024;28;20076;-80
2024/02/02 08:36:27;;;;;;;13.30;7.18;;;;;;;4.27;100.00;101907.31;5022564;28;20087;-78
2024/02/02 08:38:56;;;;;;;17.98;7.95;;;;;;;4.14;100.00;101888.94;5003164;28;20884;-77
2024/02/02 08:41:30;;;;;;;15.03;7.47;;;;;;;4.27;100.00;101909.94;5026532;28;20164;-78
2024/02/02 08:43:58;;;;;;;17.55;7.53;;;;;;;4.22;100.00;101900.34;4986229;28;20480;-80
2024/02/02 08:46:35;;;;;;;20.02;7.45;;;;;;;4.34;100.00;101885.50;5006338;28;20050;-76
2024/02/02 08:49:03;;;;;;;12.52;7.22;;;;;;;4.36;100.00;101871.53;5014436;28;20073;-78
2024/02/02 08:51:53;;;;;;;16.05;7.45;;;;;;;4.55;100.00;101878.56;5008892;28;20042;-77
2024/02/02 08:54:33;;;;;;;18.05;7.60;;;;;;;4.46;100.00;101886.38;5029719;28;20046;-76
2024/02/02 08:57:30;;;;;;;17.35;8.10;;;;;;;4.33;100.00;101865.38;5015840;28;20049;-77
2024/02/02 09:00:05;;;;;;;18.95;8.32;;;;;;;4.52;100.00;101877.66;4983867;28;20105;-77
2024/02/02 09:02:54;;;;;;;18.55;7.47;;;;;;;4.56;100.00;101879.44;4991509;28;20053;-76
2024/02/02 09:05:24;;;;;;;20.50;8.02;;;;;;;4.53;100.00;101871.56;5014193;28;20056;-78
2024/02/02 09:07:54;;;;;;;18.75;7.53;;;;;;;4.51;100.00;101868.03;5010006;28;20042;-78
2024/02/02 09:11:06;;;;;;;16.20;7.50;;;;;;;4.66;100.00;101869.81;5025570;28;20179;-76
2024/02/02 09:13:36;;;;;;;17.60;8.00;;;;;;;4.79;100.00;101872.44;4976201;28;20050;-78
2024/02/02 09:16:06;;;;;;;21.42;8.20;;;;;;;4.90;100.00;101862.81;4996463;28;20057;-77
2024/02/02 09:18:39;;;;;;;11.98;7.07;;;;;;;5.00;100.00;101853.19;5003504;28;20041;-79
2024/02/02 09:21:09;;;;;;;18.10;7.90;;;;;;;5.03;100.00;101858.44;5019923;28;20102;-78
2024/02/02 09:23:43;;;;;;;17.50;7.75;;;;;;;4.98;100.00;101848.81;5015846;28;20522;-78
2024/02/02 09:26:12;;;;;;;19.85;8.35;;;;;;;4.98;100.00;101846.19;4991678;28;20046;-77
2024/02/02 09:28:45;;;;;;;20.52;8.20;;;;;;;4.96;100.00;101846.19;5003193;28;20077;-77
2024/02/02 09:31:21;;;;;;;17.10;8.02;;;;;;;5.05;100.00;101868.91;5012301;28;20081;-77
2024/02/02 09:33:53;;;;;;;14.68;7.80;;;;;;;5.23;100.00;101863.66;5017940;28;20062;-77
2024/02/02 09:36:26;;;;;;;17.90;7.97;;;;;;;5.45;100.00;101867.13;5016884;28;20065;-78
2024/02/02 09:39:01;;;;;;;16.85;8.25;;;;;;;5.68;100.00;101877.53;5012050;28;20049;-80
2024/02/02 09:42:01;;;;;;;13.75;7.40;;;;;;;5.94;100.00;101870.47;5024971;28;20046;-80
2024/02/02 09:44:43;;;;;;;19.70;8.25;;;;;;;6.11;100.00;101865.16;5041838;28;20057;-77
2024/02/02 09:47:29;;;;;;;16.35;8.77;;;;;;;6.23;100.00;101873.84;4993025;28;20094;-79
2024/02/02 09:50:13;;;;;;;19.05;8.55;;;;;;;6.19;100.00;101868.59;5033784;28;20117;-76
2024/02/02 09:53:01;;;;;;;19.38;9.15;;;;;;;6.04;100.00;101863.41;5040835;28;20072;-75
2024/02/02 09:55:41;;;;;;;23.67;8.93;;;;;;;5.99;100.00;101855.53;5024599;28;20034;-76
2024/02/02 09:58:30;;;;;;;17.85;8.65;;;;;;;5.99;100.00;101859.03;5003625;28;20049;-77
2024/02/02 10:01:12;;;;;;;14.88;8.30;;;;;;;5.95;100.00;101841.56;5007115;28;20043;-76
2024/02/02 10:03:53;;;;;;;;;;;;;;;6.12;100.00;101866.91;5005723;28;20041;-76
2024/02/02 10:06:31;;;;;;;18.25;8.95;;;;;;;6.26;100.00;101872.94;5019337;28;19921;-74
2024/02/02 10:09:20;;;;;;;16.20;8.63;;;;;;;6.41;100.00;101856.19;4999505;28;20278;-75
2024/02/02 10:12:13;;;;;;;16.08;8.18;;;;;;;6.68;100.00;101856.00;5002082;28;20057;-76
2024/02/02 10:15:23;;;;;;;20.20;8.18;;;;;;;6.84;100.00;101848.84;5012005;28;20473;-75
2024/02/02 10:18:07;;;;;;;21.58;9.45;;;;;;;6.93;100.00;101857.53;4964482;28;20258;-73
2024/02/02 10:20:48;;;;;;;22.33;9.52;;;;;;;6.92;100.00;101855.81;5011349;28;20061;-72
2024/02/02 10:23:53;;;;;;;20.92;9.77;;;;;;;7.13;100.00;101845.94;5008160;28;20088;-72
2024/02/02 10:26:44;;;;;;;28.02;8.75;;;;;;;7.35;100.00;101851.00;5024635;28;20052;-71
2024/02/02 10:29:22;;;;;;;24.85;8.45;;;;;;;7.28;100.00;101832.59;5005429;28;20050;-74
2024/02/02 10:32:07;;;;;;;25.35;9.98;;;;;;;7.25;100.00;101835.25;5027267;28;20827;-73
2024/02/02 10:34:54;;;;;;;27.20;9.02;;;;;;;7.30;100.00;101836.09;5001342;28;20038;-73
2024/02/02 10:37:35;;;;;;;18.20;8.10;;;;;;;7.39;100.00;101842.16;4965612;28;20061;-77
2024/02/02 10:40:13;;;;;;;;;;;;;;;7.51;100.00;101837.63;4997921;28;20066;-72
2024/02/02 10:43:01;;;;;;;24.02;8.18;;;;;;;7.71;100.00;101838.28;4998344;28;20469;-72
2024/02/02 10:45:33;;;;;;;22.67;8.40;;;;;;;7.97;100.00;101812.44;4993476;28;20105;-72
2024/02/02 10:48:20;;;;;;;21.42;8.27;;;;;;;7.94;100.00;101799.28;4988864;28;20065;-73
2024/02/02 10:50:55;;;;;;;19.73;8.00;;;;;;;8.14;100.00;101799.00;5015963;28;20124;-72
2024/02/02 10:53:34;;;;;;;20.63;8.02;;;;;;;8.11;100.00;101793.78;4996923;28;20213;-73
2024/02/02 10:56:35;;;;;;;20.00;8.65;;;;;;;8.02;100.00;101809.75;4996617;28;20045;-71
2024/02/02 10:59:18;;;;;;;18.63;8.35;;;;;;;8.12;100.00;101798.16;4980240;28;20061;-72
2024/02/02 11:01:54;;;;;;;19.48;8.25;;;;;;;8.34;100.00;101802.22;4999153;28;20054;-72
2024/02/02 11:04:35;;;;;;;21.10;8.20;;;;;;;8.40;100.00;101793.34;4998314;28;20121;-72
2024/02/02 11:07:15;;;;;;;21.07;8.57;;;;;;;8.16;100.00;101797.22;4999219;28;20178;-72
2024/02/02 11:09:54;;;;;;;17.50;7.15;;;;;;;8.06;100.00;101798.22;4994712;28;20108;-72
2024/02/02 11:12:34;;;;;;;20.25;8.07;;;;;;;7.94;100.00;101796.66;4997835;28;20914;-74
2024/02/02 11:15:29;;;;;;;23.33;7.82;;;;;;;7.84;100.00;101788.91;5000656;28;20050;-71
2024/02/02 11:18:21;;;;;;;22.10;8.27;;;;;;;7.89;100.00;101782.63;4998293;28;20050;-70
2024/02/02 11:21:03;;;;;;;20.20;7.45;;;;;;;8.05;100.00;101780.66;5008062;28;20057;-72
2024/02/02 11:23:54;;;;;;;18.45;7.40;;;;;;;8.22;100.00;101770.72;5024357;28;20057;-71
2024/02/02 11:26:28;;;;;;;18.45;7.20;;;;;;;8.32;100.00;101769.75;5007137;28;20046;-73
2024/02/02 11:29:13;;;;;;;16.83;7.65;;;;;;;8.40;100.00;101769.59;4973646;28;20545;-72
2024/02/02 11:31:52;;;;;;;16.38;7.07;;;;;;;8.46;100.00;101772.16;4983930;28;20089;-73
2024/02/02 11:34:34;;;;;;;18.75;7.25;;;;;;;8.57;100.00;101769.31;4984389;28;20045;-73
2024/02/02 11:37:07;;;;;;;17.55;6.80;;;;;;;8.61;100.00;101766.63;4983753;28;20455;-74
2024/02/02 11:39:53;;;;;;;18.73;8.07;;;;;;;8.61;100.00;101747.25;4978505;28;20376;-73
2024/02/02 11:42:25;;;;;;;18.80;8.00;;;;;;;8.67;100.00;101761.22;4985224;28;20053;-78
2024/02/02 11:45:02;;;;;;;14.68;7.18;;;;;;;8.46;100.00;101758.97;4995104;28;20358;-77
2024/02/02 11:47:42;;;;;;;19.00;7.03;;;;;;;8.41;100.00;101747.59;5001438;28;20080;-78